createdAt,value
2019-05-23T00:02:45.180Z,92.29
2019-05-23T00:05:34.017Z,92.97
2019-05-23T00:08:09.552Z,93.36
2019-05-23T00:10:43.485Z,93.41
2019-05-23T00:13:31.415Z,93.27
2019-05-23T00:16:03.452Z,93.06
2019-05-23T00:18:35.875Z,92.58
2019-05-23T00:21:08.184Z,93.42
2019-05-23T00:23:41.033Z,93.66
2019-05-23T00:26:14.109Z,93.26
2019-05-23T00:28:44.951Z,93.51
2019-05-23T00:31:29.476Z,93.99
2019-05-23T00:34:00.385Z,94.30
2019-05-23T00:36:31.500Z,93.08
2019-05-23T00:39:03.505Z,92.94
2019-05-23T00:41:33.975Z,93.32
2019-05-23T00:44:04.934Z,93.13
2019-05-23T00:46:35.328Z,92.74
2019-05-23T00:49:07.898Z,92.81
2019-05-23T00:51:40.064Z,92.79
2019-05-23T00:54:11.909Z,92.02
2019-05-23T00:56:43.002Z,90.80
2019-05-23T00:59:25.929Z,91.43
2019-05-23T01:01:46.690Z,91.71
2019-05-23T01:04:18.192Z,91.75
2019-05-23T01:06:49.493Z,91.72
2019-05-23T01:09:19.961Z,91.92
2019-05-23T01:11:50.904Z,92.65
2019-05-23T01:14:21.574Z,92.64
2019-05-23T01:16:53.912Z,91.69
2019-05-23T01:19:25.299Z,91.53
2019-05-23T01:21:59.385Z,91.45
2019-05-23T01:24:35.424Z,90.99
2019-05-23T01:27:07.300Z,90.81
2019-05-23T01:29:42.205Z,91.11
2019-05-23T01:32:19.378Z,90.46
2019-05-23T01:34:51.240Z,90.32
2019-05-23T01:37:21.978Z,92.07
2019-05-23T01:39:53.032Z,92.52
2019-05-23T01:42:24.340Z,92.30
2019-05-23T01:44:57.803Z,91.25
2019-05-23T01:47:29.369Z,90.22
2019-05-23T01:50:01.337Z,90.69
2019-05-23T01:52:33.056Z,92.41
2019-05-23T01:55:03.497Z,92.24
2019-05-23T01:57:34.227Z,92.77
2019-05-23T02:00:10.576Z,91.86
2019-05-23T02:02:39.320Z,90.61
2019-05-23T02:05:11.666Z,92.14
2019-05-23T02:07:42.022Z,93.19
2019-05-23T02:10:14.007Z,93.90
2019-05-23T02:12:44.802Z,93.38
2019-05-23T02:15:15.679Z,93.18
2019-05-23T02:17:46.649Z,91.83
2019-05-23T02:20:20.517Z,91.14
2019-05-23T02:22:51.635Z,90.83
2019-05-23T02:25:24.892Z,90.71
2019-05-23T02:27:55.719Z,91.46
2019-05-23T02:30:36.006Z,91.47
2019-05-23T02:32:59.314Z,91.52
2019-05-23T02:35:29.898Z,91.41
2019-05-23T02:38:18.770Z,91.74
2019-05-23T02:41:07.231Z,91.37
2019-05-23T02:43:38.172Z,91.13
2019-05-23T02:46:16.588Z,91.21
2019-05-23T02:48:48.633Z,91.00
2019-05-23T02:51:29.379Z,91.62
2019-05-23T02:54:02.108Z,92.11
2019-05-23T02:56:36.780Z,91.87
2019-05-23T02:59:51.456Z,92.23
2019-05-23T03:02:54.706Z,92.36
2019-05-23T03:05:27.184Z,92.62
2019-05-23T03:08:00.638Z,92.64
2019-05-23T03:10:54.691Z,92.28
2019-05-23T03:13:28.366Z,92.27
2019-05-23T03:16:00.586Z,91.25
2019-05-23T03:18:35.116Z,90.90
2019-05-23T03:21:06.322Z,91.40
2019-05-23T03:23:37.197Z,91.52
2019-05-23T03:27:00.922Z,91.70
2019-05-23T03:29:33.477Z,91.89
2019-05-23T03:32:19.903Z,92.75
2019-05-23T03:34:53.712Z,91.96
2019-05-23T03:37:24.060Z,92.31
2019-05-23T03:39:55.341Z,91.65
2019-05-23T03:42:27.747Z,92.30
2019-05-23T03:45:00.131Z,92.28
2019-05-23T03:47:32.259Z,92.21
2019-05-23T03:50:03.097Z,92.18
2019-05-23T03:52:33.649Z,91.38
2019-05-23T03:55:05.686Z,91.59
2019-05-23T03:57:36.942Z,91.99
2019-05-23T04:00:11.676Z,91.97
2019-05-23T04:02:42.562Z,92.02
2019-05-23T04:05:13.024Z,91.13
2019-05-23T04:07:44.564Z,91.70
2019-05-23T04:10:15.451Z,91.66
2019-05-23T04:12:45.903Z,91.37
2019-05-23T04:15:16.701Z,90.75
2019-05-23T04:17:47.523Z,90.87
2019-05-23T04:20:17.822Z,90.58
2019-05-23T04:22:48.344Z,91.68
2019-05-23T04:25:19.079Z,91.69
2019-05-23T04:27:49.870Z,91.39
2019-05-23T04:30:20.750Z,91.45
2019-05-23T04:32:51.606Z,91.84
2019-05-23T04:35:21.953Z,91.63
2019-05-23T04:37:52.648Z,91.65
2019-05-23T04:40:23.822Z,91.42
2019-05-23T04:42:54.367Z,91.41
2019-05-23T04:45:25.846Z,91.41
2019-05-23T04:47:56.576Z,91.71
2019-05-23T04:50:28.025Z,91.72
2019-05-23T04:53:01.925Z,91.82
2019-05-23T04:55:32.653Z,91.80
2019-05-23T04:58:05.031Z,91.69
2019-05-23T05:00:35.938Z,91.90
2019-05-23T05:03:08.608Z,91.60
2019-05-23T05:05:38.986Z,91.84
2019-05-23T05:08:09.635Z,92.00
2019-05-23T05:10:42.069Z,91.81
2019-05-23T05:13:12.492Z,91.50
2019-05-23T05:15:43.378Z,91.70
2019-05-23T05:18:14.449Z,91.68
2019-05-23T05:20:44.936Z,91.40
2019-05-23T05:23:15.422Z,91.15
2019-05-23T05:25:45.919Z,91.10
2019-05-23T05:28:16.312Z,90.98
2019-05-23T05:30:47.065Z,90.87
2019-05-23T05:33:17.703Z,90.76
2019-05-23T05:35:48.227Z,90.63
2019-05-23T05:38:19.692Z,90.48
2019-05-23T05:40:50.621Z,90.23
2019-05-23T05:43:21.566Z,90.01
2019-05-23T05:45:52.642Z,89.77
2019-05-23T05:48:23.024Z,89.55
2019-05-23T05:50:53.897Z,89.25
2019-05-23T05:53:24.672Z,89.08
2019-05-23T05:55:55.146Z,87.74
2019-05-23T05:58:25.658Z,87.59
2019-05-23T06:01:04.461Z,87.00
2019-05-23T06:03:35.149Z,86.41
2019-05-23T06:06:29.166Z,86.11
2019-05-23T06:09:01.629Z,85.88
2019-05-23T06:11:32.264Z,84.65
2019-05-23T06:14:02.807Z,84.30
2019-05-23T06:16:34.745Z,83.85
2019-05-23T06:19:06.363Z,82.94
2019-05-23T06:21:36.938Z,82.65
2019-05-23T06:24:07.890Z,82.04
2019-05-23T06:26:40.140Z,80.64
2019-05-23T06:29:10.592Z,80.37
2019-05-23T06:31:42.942Z,80.14
2019-05-23T06:34:14.254Z,73.19
2019-05-23T06:36:44.784Z,74.86
2019-05-23T06:39:15.768Z,76.47
2019-05-23T06:41:46.489Z,75.16
2019-05-23T06:44:18.486Z,74.26
2019-05-23T06:46:49.456Z,73.23
2019-05-23T06:49:19.777Z,71.20
2019-05-23T06:51:50.109Z,66.93
2019-05-23T06:54:20.525Z,67.15
2019-05-23T06:56:50.884Z,65.08
2019-05-23T06:59:21.532Z,63.39
2019-05-23T07:01:51.992Z,63.69
2019-05-23T07:04:22.350Z,59.61
2019-05-23T07:06:53.225Z,61.50
2019-05-23T07:09:24.634Z,63.84
2019-05-23T07:11:59.139Z,62.90
2019-05-23T07:14:32.057Z,57.28
2019-05-23T07:17:02.482Z,58.30
2019-05-23T07:19:33.047Z,55.35
2019-05-23T07:22:03.922Z,54.61
2019-05-23T07:24:34.374Z,58.71
2019-05-23T07:27:04.850Z,57.53
2019-05-23T07:29:36.029Z,53.81
2019-05-23T07:32:07.537Z,53.56
2019-05-23T07:34:37.973Z,55.37
2019-05-23T07:37:09.440Z,51.84
2019-05-23T07:39:40.012Z,52.01
2019-05-23T07:42:11.678Z,54.61
2019-05-23T07:44:48.413Z,55.19
2019-05-23T07:47:16.108Z,53.37
2019-05-23T07:49:47.993Z,54.24
2019-05-23T07:52:21.444Z,53.54
2019-05-23T07:54:57.876Z,51.69
2019-05-23T07:57:28.494Z,49.50
2019-05-23T07:59:58.932Z,47.51
2019-05-23T08:02:34.230Z,51.06
2019-05-23T08:05:06.569Z,47.68
2019-05-23T08:07:37.542Z,46.40
2019-05-23T08:10:09.777Z,45.41
2019-05-23T08:12:40.686Z,47.57
2019-05-23T08:15:11.998Z,46.65
2019-05-23T08:17:47.288Z,47.13
2019-05-23T08:20:17.980Z,49.00
2019-05-23T08:22:48.395Z,50.06
2019-05-23T08:25:18.763Z,50.36
2019-05-23T08:27:49.263Z,53.47
2019-05-23T08:30:20.242Z,53.50
2019-05-23T08:32:51.237Z,53.75
2019-05-23T08:35:21.969Z,58.12
2019-05-23T08:37:52.616Z,55.90
2019-05-23T08:40:23.957Z,52.73
2019-05-23T08:42:54.408Z,50.26
2019-05-23T08:45:24.874Z,49.18
2019-05-23T08:47:55.408Z,44.75
2019-05-23T08:50:26.013Z,44.85
2019-05-23T08:52:56.485Z,41.20
2019-05-23T08:55:27.930Z,41.20
2019-05-23T08:57:59.105Z,37.73
2019-05-23T09:00:29.917Z,39.36
2019-05-23T09:03:02.083Z,37.83
2019-05-23T09:05:33.071Z,39.22
2019-05-23T09:08:03.903Z,37.73
2019-05-23T09:10:34.719Z,36.20
2019-05-23T09:13:05.852Z,32.66
2019-05-23T09:15:36.251Z,34.25
2019-05-23T09:18:08.168Z,30.86
2019-05-23T09:20:38.830Z,32.40
2019-05-23T09:23:09.168Z,32.35
2019-05-23T09:25:39.671Z,33.74
2019-05-23T09:28:11.774Z,33.48
2019-05-23T09:30:42.264Z,30.77
2019-05-23T09:33:12.929Z,34.64
2019-05-23T09:35:43.730Z,36.11
2019-05-23T09:38:14.114Z,36.26
2019-05-23T09:40:44.858Z,37.30
2019-05-23T09:43:15.581Z,37.46
2019-05-23T09:45:46.005Z,36.32
2019-05-23T09:48:16.446Z,32.74
2019-05-23T09:50:49.050Z,32.74
2019-05-23T09:53:19.727Z,30.28
2019-05-23T09:55:50.037Z,30.46
2019-05-23T09:58:20.539Z,32.22
2019-05-23T10:00:51.670Z,29.77
2019-05-23T10:03:22.149Z,32.07
2019-05-23T10:05:52.644Z,28.07
2019-05-23T10:08:23.127Z,29.82
2019-05-23T10:10:53.868Z,29.59
2019-05-23T10:13:38.681Z,28.74
2019-05-23T10:16:08.077Z,29.28
2019-05-23T10:18:38.675Z,31.92
2019-05-23T10:21:09.185Z,33.13
2019-05-23T10:23:39.602Z,33.07
2019-05-23T10:26:11.362Z,31.10
2019-05-23T10:28:42.160Z,32.81
2019-05-23T10:31:13.378Z,34.89
2019-05-23T10:33:44.284Z,35.79
2019-05-23T10:36:15.112Z,34.48
2019-05-23T10:38:45.557Z,32.70
2019-05-23T10:41:15.936Z,29.19
2019-05-23T10:43:46.873Z,27.22
2019-05-23T10:46:17.640Z,27.24
2019-05-23T10:48:48.227Z,27.66
2019-05-23T10:51:19.215Z,25.51
2019-05-23T10:53:49.792Z,24.03
2019-05-23T10:56:21.094Z,22.64
2019-05-23T10:58:52.294Z,21.63
2019-05-23T11:01:23.011Z,26.01
2019-05-23T11:03:54.055Z,25.65
2019-05-23T11:06:25.798Z,23.57
2019-05-23T11:08:56.598Z,22.98
2019-05-23T11:11:27.209Z,25.45
2019-05-23T11:13:58.507Z,24.49
2019-05-23T11:16:29.156Z,22.07
2019-05-23T11:18:59.589Z,21.34
2019-05-23T11:21:30.316Z,22.86
2019-05-23T11:24:01.392Z,22.00
2019-05-23T11:26:32.082Z,20.86
2019-05-23T11:29:02.664Z,21.38
2019-05-23T11:31:33.203Z,21.72
2019-05-23T11:34:04.001Z,20.14
2019-05-23T11:36:36.648Z,20.16
2019-05-23T11:39:09.442Z,19.50
2019-05-23T11:41:39.903Z,18.67
2019-05-23T11:44:10.358Z,20.34
2019-05-23T11:46:41.007Z,22.49
2019-05-23T11:49:11.439Z,20.95
2019-05-23T11:51:42.295Z,22.83
2019-05-23T11:54:12.716Z,21.58
2019-05-23T11:56:43.232Z,23.52
2019-05-23T11:59:13.901Z,26.57
2019-05-23T12:02:06.228Z,24.88
2019-05-23T12:04:41.919Z,27.58
2019-05-23T12:07:19.330Z,26.48
2019-05-23T12:09:49.793Z,25.42
2019-05-23T12:12:20.540Z,25.00
2019-05-23T12:14:50.978Z,25.28
2019-05-23T12:17:22.870Z,24.57
2019-05-23T12:19:53.300Z,27.45
2019-05-23T12:22:24.271Z,25.48
2019-05-23T12:24:54.876Z,25.91
2019-05-23T12:27:25.990Z,26.88
2019-05-23T12:29:56.878Z,27.38
2019-05-23T12:32:27.507Z,26.21
2019-05-23T12:35:10.574Z,25.72
2019-05-23T12:37:30.136Z,24.07
2019-05-23T12:40:01.239Z,23.50
2019-05-23T12:42:31.676Z,23.01
2019-05-23T12:45:02.925Z,23.35
2019-05-23T12:47:58.169Z,23.43
2019-05-23T12:50:32.749Z,22.69
2019-05-23T12:53:04.512Z,19.29
2019-05-23T12:55:34.980Z,18.76
2019-05-23T12:58:05.383Z,18.66
2019-05-23T13:00:57.865Z,19.78
2019-05-23T13:03:29.963Z,20.08
2019-05-23T13:06:02.629Z,18.88
2019-05-23T13:08:34.980Z,16.86
2019-05-23T13:11:06.824Z,17.90
2019-05-23T13:13:37.873Z,16.90
2019-05-23T13:16:09.215Z,16.24
2019-05-23T13:18:40.372Z,16.69
2019-05-23T13:21:11.692Z,17.92
2019-05-23T13:23:43.064Z,17.85
2019-05-23T13:26:14.155Z,18.54
2019-05-23T13:28:45.431Z,17.61
2019-05-23T13:31:16.458Z,19.03
2019-05-23T13:33:48.051Z,19.04
2019-05-23T13:36:19.424Z,20.75
2019-05-23T13:38:51.338Z,19.99
2019-05-23T13:41:21.877Z,21.36
2019-05-23T13:43:52.694Z,20.57
2019-05-23T13:46:23.409Z,22.20
2019-05-23T13:48:53.843Z,23.11
2019-05-23T13:51:24.393Z,24.26
2019-05-23T13:53:54.825Z,25.53
2019-05-23T13:56:25.328Z,27.58
2019-05-23T13:58:55.968Z,28.15
2019-05-23T14:01:26.512Z,29.32
2019-05-23T14:03:57.414Z,28.61
2019-05-23T14:06:27.800Z,31.74
2019-05-23T14:08:58.236Z,32.18
2019-05-23T14:11:28.710Z,32.09
2019-05-23T14:14:01.782Z,32.25
2019-05-23T14:16:33.790Z,31.69
2019-05-23T14:19:04.242Z,31.19
2019-05-23T14:24:04.604Z,31.90
2019-05-23T14:26:41.348Z,30.52
2019-05-23T14:29:11.753Z,31.21
2019-05-23T14:31:50.118Z,31.60
2019-05-23T14:34:21.146Z,30.27
2019-05-23T14:37:14.598Z,30.96
2019-05-23T14:40:00.538Z,31.92
2019-05-23T14:42:39.448Z,32.44
2019-05-23T14:45:36.393Z,29.92
2019-05-23T14:48:13.378Z,31.36
2019-05-23T14:50:58.992Z,29.19
2019-05-23T14:53:31.027Z,30.67
2019-05-23T14:56:01.441Z,31.50
2019-05-23T14:58:32.127Z,30.98
2019-05-23T15:01:04.613Z,28.94
2019-05-23T15:03:36.049Z,29.63
2019-05-23T15:06:06.746Z,30.22
2019-05-23T15:08:50.579Z,30.68
2019-05-23T15:11:09.329Z,32.06
2019-05-23T15:13:39.744Z,32.78
2019-05-23T15:16:11.572Z,33.05
2019-05-23T15:18:42.100Z,32.37
2019-05-23T15:21:12.710Z,34.53
2019-05-23T15:23:43.118Z,31.82
2019-05-23T15:26:23.173Z,30.52
2019-05-23T15:28:45.795Z,30.72
2019-05-23T15:31:35.226Z,29.10
2019-05-23T15:34:05.690Z,28.19
2019-05-23T15:36:36.119Z,27.15
2019-05-23T15:39:10.561Z,29.00
2019-05-23T15:41:41.438Z,27.71
2019-05-23T15:44:25.925Z,28.01
2019-05-23T15:46:44.318Z,27.05
2019-05-23T15:49:15.523Z,27.81
2019-05-23T15:51:53.988Z,27.31
2019-05-23T15:54:32.695Z,25.80
2019-05-23T15:57:27.988Z,25.03
2019-05-23T16:00:18.229Z,22.76
2019-05-23T16:02:57.122Z,21.65
2019-05-23T16:05:27.587Z,22.27
2019-05-23T16:07:58.121Z,22.66
2019-05-23T16:10:29.637Z,23.85
2019-05-23T16:13:00.423Z,22.61
2019-05-23T16:15:30.909Z,23.78
2019-05-23T16:18:01.334Z,23.86
2019-05-23T16:20:31.851Z,26.08
2019-05-23T16:23:02.302Z,28.54
2019-05-23T16:25:32.700Z,28.47
2019-05-23T16:28:03.128Z,27.98
2019-05-23T16:30:33.565Z,27.31
2019-05-23T16:33:04.012Z,30.45
2019-05-23T16:35:34.855Z,32.62
2019-05-23T16:38:05.376Z,27.70
2019-05-23T16:40:36.220Z,27.20
2019-05-23T16:43:06.652Z,25.38
2019-05-23T16:45:37.101Z,24.41
2019-05-23T16:48:07.829Z,23.09
2019-05-23T16:50:38.481Z,23.58
2019-05-23T16:53:08.885Z,23.97
2019-05-23T16:55:55.288Z,24.40
2019-05-23T16:58:41.570Z,25.80
2019-05-23T17:01:24.245Z,24.62
2019-05-23T17:04:06.378Z,29.10
2019-05-23T17:07:01.796Z,28.50
2019-05-23T17:09:38.865Z,33.50
2019-05-23T17:12:21.905Z,28.43
2019-05-23T17:15:08.120Z,30.52
2019-05-23T17:18:02.735Z,33.18
2019-05-23T17:20:48.378Z,34.11
2019-05-23T17:23:32.728Z,37.34
2019-05-23T17:26:18.122Z,35.97
2019-05-23T17:28:51.112Z,37.51
2019-05-23T17:31:26.966Z,38.48
2019-05-23T17:33:57.498Z,37.85
2019-05-23T17:36:28.081Z,38.29
2019-05-23T17:38:58.435Z,40.67
2019-05-23T17:41:28.881Z,38.86
2019-05-23T17:43:59.386Z,41.94
2019-05-23T17:46:29.736Z,41.05
2019-05-23T17:49:00.273Z,45.54
2019-05-23T17:51:30.740Z,40.70
2019-05-23T17:54:01.220Z,42.43
2019-05-23T17:56:31.608Z,42.42
2019-05-23T17:59:02.232Z,45.94
2019-05-23T18:01:33.290Z,48.99
2019-05-23T18:04:04.279Z,47.39
2019-05-23T18:06:35.484Z,46.75
2019-05-23T18:09:08.539Z,45.23
2019-05-23T18:11:39.286Z,47.47
2019-05-23T18:14:10.848Z,47.00
2019-05-23T18:16:42.928Z,47.73
2019-05-23T18:19:13.893Z,47.90
2019-05-23T18:21:45.010Z,48.21
2019-05-23T18:24:17.217Z,48.64
2019-05-23T18:26:47.724Z,49.37
2019-05-23T18:29:18.501Z,49.37
2019-05-23T18:31:50.712Z,48.23
2019-05-23T18:34:22.520Z,50.91
2019-05-23T18:36:53.852Z,53.13
2019-05-23T18:39:24.577Z,52.80
2019-05-23T18:41:55.721Z,53.43
2019-05-23T18:44:26.501Z,50.76
2019-05-23T18:46:59.387Z,56.36
2019-05-23T18:49:29.935Z,58.79
2019-05-23T18:52:00.903Z,59.75
2019-05-23T18:54:31.363Z,61.78
2019-05-23T18:57:02.123Z,62.99
2019-05-23T18:59:32.710Z,63.79
2019-05-23T19:02:04.280Z,64.68
2019-05-23T19:04:34.706Z,65.38
2019-05-23T19:07:07.489Z,66.19
2019-05-23T19:09:38.591Z,67.45
2019-05-23T19:12:09.922Z,68.03
2019-05-23T19:14:40.223Z,67.40
2019-05-23T19:17:10.859Z,67.73
2019-05-23T19:19:41.312Z,68.30
2019-05-23T19:22:11.652Z,69.23
2019-05-23T19:24:42.140Z,70.06
2019-05-23T19:27:14.456Z,69.23
2019-05-23T19:29:46.004Z,70.52
2019-05-23T19:32:16.642Z,71.32
2019-05-23T19:34:47.492Z,71.01
2019-05-23T19:37:18.308Z,71.03
2019-05-23T19:39:48.786Z,71.58
2019-05-23T19:42:19.763Z,71.62
2019-05-23T19:44:50.262Z,72.33
2019-05-23T19:47:20.691Z,71.86
2019-05-23T19:49:51.278Z,72.28
2019-05-23T19:52:22.005Z,72.21
2019-05-23T19:54:52.721Z,72.54
2019-05-23T19:57:23.276Z,73.56
2019-05-23T19:59:54.022Z,73.66
2019-05-23T20:02:46.113Z,73.87
2019-05-23T20:05:21.880Z,74.06
2019-05-23T20:07:52.391Z,75.20
2019-05-23T20:10:23.929Z,74.85
2019-05-23T20:12:54.347Z,75.00
2019-05-23T20:15:24.961Z,75.62
2019-05-23T20:17:55.660Z,75.45
2019-05-23T20:20:26.758Z,76.09
2019-05-23T20:22:57.773Z,76.27
2019-05-23T20:25:28.801Z,76.68
2019-05-23T20:27:59.223Z,78.01
2019-05-23T20:30:57.072Z,78.81
2019-05-23T20:33:27.487Z,77.81
2019-05-23T20:35:58.476Z,76.85
2019-05-23T20:38:29.007Z,77.06
2019-05-23T20:40:59.482Z,78.20
2019-05-23T20:43:30.043Z,77.81
2019-05-23T20:46:00.498Z,77.90
2019-05-23T20:48:30.988Z,77.55
2019-05-23T20:51:01.431Z,77.59
2019-05-23T20:53:32.525Z,77.97
2019-05-23T20:56:02.896Z,77.60
2019-05-23T20:58:33.409Z,77.74
2019-05-23T21:01:11.543Z,77.26
2019-05-23T21:03:42.320Z,77.66
2019-05-23T21:06:12.753Z,78.74
2019-05-23T21:08:43.553Z,78.76
2019-05-23T21:11:13.957Z,77.54
2019-05-23T21:13:44.450Z,78.58
2019-05-23T21:16:14.881Z,78.17
2019-05-23T21:18:49.025Z,78.51
2019-05-23T21:21:17.457Z,78.41
2019-05-23T21:23:48.053Z,77.79
2019-05-23T21:26:18.551Z,78.63
2019-05-23T21:28:49.068Z,78.02
2019-05-23T21:31:22.675Z,78.52
2019-05-23T21:33:53.135Z,78.63
2019-05-23T21:36:23.647Z,78.62
2019-05-23T21:38:54.155Z,79.42
2019-05-23T21:41:24.642Z,79.72
2019-05-23T21:43:57.012Z,79.74
2019-05-23T21:46:27.573Z,78.48
2019-05-23T21:48:57.907Z,78.49
2019-05-23T21:51:28.337Z,77.58
2019-05-23T21:53:58.825Z,77.88
2019-05-23T21:56:29.851Z,78.32
2019-05-23T21:59:00.486Z,77.26
2019-05-23T22:01:53.505Z,76.38
2019-05-23T22:04:46.001Z,75.68
2019-05-23T22:07:16.695Z,76.01
2019-05-23T22:09:47.062Z,76.27
2019-05-23T22:12:17.686Z,76.65
2019-05-23T22:14:48.680Z,76.89
2019-05-23T22:17:20.740Z,77.25
2019-05-23T22:19:51.190Z,78.25
2019-05-23T22:22:22.365Z,78.66
2019-05-23T22:24:53.272Z,79.69
2019-05-23T22:27:23.725Z,80.22
2019-05-23T22:29:54.474Z,79.71
2019-05-23T22:32:26.809Z,79.17
2019-05-23T22:35:01.737Z,78.03
2019-05-23T22:37:32.449Z,79.11
2019-05-23T22:40:04.012Z,78.58
2019-05-23T22:42:34.740Z,80.02
2019-05-23T22:45:07.785Z,79.81
2019-05-23T22:47:38.320Z,79.29
2019-05-23T22:50:09.130Z,78.08
2019-05-23T22:52:39.562Z,78.28
2019-05-23T22:55:09.944Z,76.53
2019-05-23T22:57:40.726Z,77.43
2019-05-23T23:00:14.127Z,79.87
2019-05-23T23:02:46.093Z,77.74
2019-05-23T23:05:16.730Z,78.31
2019-05-23T23:07:47.415Z,78.00
2019-05-23T23:10:17.919Z,78.11
2019-05-23T23:12:48.464Z,79.75
2019-05-23T23:15:18.986Z,77.65
2019-05-23T23:17:49.435Z,78.33
2019-05-23T23:20:19.839Z,79.87
2019-05-23T23:22:50.165Z,81.54
2019-05-23T23:25:20.766Z,79.34
2019-05-23T23:27:51.212Z,80.61
2019-05-23T23:30:25.009Z,80.44
2019-05-23T23:32:55.361Z,79.57
2019-05-23T23:35:25.773Z,79.04
2019-05-23T23:37:56.246Z,79.08
2019-05-23T23:40:26.640Z,78.14
2019-05-23T23:42:57.860Z,78.94
2019-05-23T23:45:46.592Z,78.41
2019-05-23T23:48:34.758Z,79.09
2019-05-23T23:51:23.029Z,79.39
2019-05-23T23:54:10.875Z,81.45
2019-05-23T23:56:59.064Z,80.87
2019-05-23T23:59:28.504Z,81.18
